Skip Navigation Links
NOAA logo - Click to go to the NOAA homepage
NOAA's National Weather Service
Alaska Aviation Weather Unit
  NWS logo - Click to go to the NWS homepage
Left Navbar Graphic     12 AKDT = 20 GMT

   
NOAA is celebrating 200 years of science, service, and stewardship. Visit the NOAA 200th celebration Web site to learn more.
USA.gov is the U.S. Government's official Web portal to all Federal, state and local government Web resources and services.
Facebook
NWS on Facebook

Important Change Regarding the AAWU Web Presence

 

Over the last several months, the AAWU has been working to navigate its webpages to a nationally supported server. Security, as well as other needs, have necessitated the change.  We have been given an extension for the site changeover while we diligently work at addressing feedback received. As of July 14, 2017, aawu.arh.noaa.gov will be discontinued. The new AAWU web address is weather.gov/aawu. It is now live and will run in-parallel with the old site until it is discontinued on July 14, 2017. Please continue to send any feedback or questions regarding the new webpages to nws.ar.aawu.webauthors@noaa.gov.  Thank you for your patience during this time of transition.
AAWU Home :: Display TAF Add Bookmark
SPECI PASX 251419Z AUTO 00000KT 10SM FEW006 OVC022 12/11 A3002 RMK AO2
     $=

METAR PASX 251456Z AUTO 00000KT 10SM OVC020 12/11 A3001 RMK AO2
 SLP173 60000 T01220106 56005 $=

SPECI PASX 251510Z AUTO 00000KT 10SM SCT006 OVC020 12/11 A3001 RMK AO2
     $=

METAR PASX 251556Z AUTO 00000KT 10SM FEW006 OVC022 12/11 A3001 RMK
 AO2 SLP171 T01220111 $=

METAR PASX 251656Z AUTO 00000KT 10SM OVC020 13/12 A3001 RMK AO2 RAB03E51
     SLP170 P0000 T01330117 $=

METAR PASX 251756Z AUTO VRB03KT 10SM OVC018 14/12 A3000 RMK AO2 RAB14E33
     SLP166 P0000 60000 T01390117 10139 20117 58006 $=

METAR PASX 251956Z AUTO 28009KT 10SM SCT017 OVC022 16/12 A2998 RMK AO2
     SLP161 T01610122 $=

SPECI PASX 252041Z AUTO 29010KT 10SM FEW020 SCT070 OVC100 15/12 A2998
     RMK AO2 RAB02E15 P0000 $=


NOAA's National Weather Service
Alaska Aviation Weather Unit
6930 Sand Lake Road
Anchorage, AK 99502-1845
Disclaimer
Credits
Glossary
Privacy Policy
About Us
Career Opportunities
Contact AAWU Internet Services Site last modified: April, 17th 2012